createdAt,value
2022-08-09T00:00:04.574Z,99.90
2022-08-09T00:02:34.993Z,99.90
2022-08-09T00:06:18.634Z,99.90
2022-08-09T00:07:54.372Z,99.90
2022-08-09T00:10:24.566Z,99.90
2022-08-09T00:12:53.325Z,99.90
2022-08-09T00:15:26.317Z,99.90
2022-08-09T00:18:05.824Z,99.90
2022-08-09T00:20:42.445Z,99.90
2022-08-09T00:23:55.926Z,99.90
2022-08-09T00:26:08.028Z,99.90
2022-08-09T00:28:36.884Z,99.90
2022-08-09T00:31:30.728Z,99.90
2022-08-09T00:33:55.597Z,99.90
2022-08-09T00:36:29.581Z,99.90
2022-08-09T00:39:00.341Z,99.90
2022-08-09T00:44:16.261Z,99.90
2022-08-09T00:44:25.385Z,99.90
2022-08-09T00:47:04.768Z,99.90
2022-08-09T00:49:34.727Z,99.90
2022-08-09T00:52:17.338Z,99.90
2022-08-09T00:54:48.543Z,99.90
2022-08-09T00:57:24.677Z,99.90
2022-08-09T01:00:03.069Z,99.90
2022-08-09T01:02:34.054Z,99.90
2022-08-09T01:05:14.268Z,99.90
2022-08-09T01:07:59.977Z,99.90
2022-08-09T01:10:35.367Z,99.90
2022-08-09T01:13:13.349Z,99.90
2022-08-09T01:15:52.634Z,99.90
2022-08-09T01:18:30.385Z,99.90
2022-08-09T01:21:11.076Z,99.90
2022-08-09T01:24:02.651Z,99.90
2022-08-09T01:26:55.850Z,99.90
2022-08-09T01:29:54.834Z,99.90
2022-08-09T01:32:43.966Z,99.90
2022-08-09T01:35:28.350Z,99.90
2022-08-09T01:38:10.503Z,99.90
2022-08-09T01:40:52.752Z,99.90
2022-08-09T01:43:50.183Z,99.90
2022-08-09T01:46:24.679Z,99.90
2022-08-09T01:48:56.601Z,99.90
2022-08-09T01:51:26.468Z,99.90
2022-08-09T01:53:58.036Z,99.90
2022-08-09T01:56:30.153Z,99.90
2022-08-09T01:59:05.015Z,99.90
2022-08-09T02:01:59.750Z,99.90
2022-08-09T02:04:26.031Z,99.90
2022-08-09T02:07:15.318Z,99.90
2022-08-09T02:09:59.279Z,99.90
2022-08-09T02:12:31.494Z,99.90
2022-08-09T02:15:03.162Z,99.90
2022-08-09T02:18:09.741Z,99.90
2022-08-09T02:20:26.597Z,99.90
2022-08-09T02:23:08.996Z,99.90
2022-08-09T02:25:42.641Z,99.90
2022-08-09T02:28:24.076Z,99.90
2022-08-09T02:30:59.812Z,99.90
2022-08-09T02:33:38.024Z,99.90
2022-08-09T02:36:23.378Z,99.90
2022-08-09T02:38:56.806Z,99.90
2022-08-09T02:41:29.364Z,99.90
2022-08-09T02:44:06.619Z,99.90
2022-08-09T02:46:46.230Z,99.90
2022-08-09T02:49:20.643Z,99.90
2022-08-09T02:52:08.601Z,99.90
2022-08-09T02:54:51.161Z,99.90
2022-08-09T02:57:25.330Z,99.90
2022-08-09T03:00:20.933Z,99.90
2022-08-09T03:02:59.932Z,99.90
2022-08-09T03:05:29.981Z,99.90
2022-08-09T03:08:03.917Z,99.90
2022-08-09T03:10:33.889Z,99.90
2022-08-09T03:13:02.601Z,99.90
2022-08-09T03:15:40.468Z,99.90
2022-08-09T03:18:31.346Z,99.90
2022-08-09T03:21:01.648Z,99.90
2022-08-09T03:23:29.913Z,99.90
2022-08-09T03:26:03.673Z,99.90
2022-08-09T03:28:34.844Z,99.90
2022-08-09T03:31:09.845Z,99.90
2022-08-09T03:33:54.218Z,99.90
2022-08-09T03:36:27.092Z,99.90
2022-08-09T03:38:57.429Z,99.90
2022-08-09T03:41:30.170Z,99.90
2022-08-09T03:44:15.677Z,99.90
2022-08-09T03:46:44.736Z,99.90
2022-08-09T03:49:19.337Z,99.90
2022-08-09T03:51:58.624Z,99.90
2022-08-09T03:54:32.797Z,99.90
2022-08-09T03:57:12.446Z,99.90
2022-08-09T03:59:54.587Z,99.90
2022-08-09T04:02:27.560Z,99.90
2022-08-09T04:05:01.434Z,99.90
2022-08-09T04:07:53.505Z,99.90
2022-08-09T04:10:29.635Z,99.90
2022-08-09T04:13:01.384Z,99.90
2022-08-09T04:15:52.207Z,99.90
2022-08-09T04:18:21.317Z,99.90
2022-08-09T04:20:51.758Z,99.90
2022-08-09T04:23:23.278Z,99.90
2022-08-09T04:25:53.817Z,99.90
2022-08-09T04:28:34.053Z,99.90
2022-08-09T04:31:09.109Z,99.90
2022-08-09T04:33:51.538Z,99.90
2022-08-09T04:36:24.908Z,99.90
2022-08-09T04:38:53.677Z,99.90
2022-08-09T04:41:23.993Z,99.90
2022-08-09T04:44:05.610Z,99.90
2022-08-09T04:46:37.338Z,99.90
2022-08-09T04:49:40.732Z,99.90
2022-08-09T04:52:18.574Z,99.90
2022-08-09T04:54:54.403Z,99.90
2022-08-09T04:57:24.414Z,99.90
2022-08-09T04:59:54.232Z,99.90
2022-08-09T05:02:22.803Z,99.90
2022-08-09T05:04:55.606Z,99.90
2022-08-09T05:07:29.105Z,99.90
2022-08-09T05:10:01.841Z,99.90
2022-08-09T05:12:31.200Z,99.90
2022-08-09T05:15:03.627Z,99.90
2022-08-09T05:18:38.874Z,99.90
2022-08-09T05:20:29.739Z,99.90
2022-08-09T05:23:50.965Z,99.90
2022-08-09T05:25:50.900Z,99.90
2022-08-09T05:28:19.752Z,99.90
2022-08-09T05:30:48.139Z,99.90
2022-08-09T05:33:16.524Z,99.90
2022-08-09T05:35:46.652Z,99.90
2022-08-09T05:38:22.153Z,99.90
2022-08-09T05:40:50.720Z,99.90
2022-08-09T05:43:19.088Z,99.90
2022-08-09T05:45:55.531Z,99.90
2022-08-09T05:48:32.779Z,99.90
2022-08-09T05:51:30.067Z,99.90
2022-08-09T05:53:56.705Z,99.90
2022-08-09T05:56:26.360Z,99.90
2022-08-09T05:58:58.480Z,99.90
2022-08-09T06:01:33.679Z,99.90
2022-08-09T06:04:05.796Z,99.90
2022-08-09T06:06:34.266Z,99.90
2022-08-09T06:09:09.986Z,99.90
2022-08-09T06:11:57.278Z,99.90
2022-08-09T06:14:26.268Z,99.90
2022-08-09T06:16:57.395Z,99.90
2022-08-09T06:19:27.463Z,99.90
2022-08-09T06:21:58.835Z,99.90
2022-08-09T06:24:28.585Z,99.90
2022-08-09T06:26:57.020Z,99.90
2022-08-09T06:29:27.007Z,99.90
2022-08-09T06:32:08.653Z,99.90
2022-08-09T06:34:43.221Z,99.40
2022-08-09T06:37:11.199Z,99.30
2022-08-09T06:39:57.536Z,98.30
2022-08-09T06:42:30.689Z,97.90
2022-08-09T06:44:59.270Z,97.30
2022-08-09T06:47:30.211Z,96.70
2022-08-09T06:50:14.314Z,96.70
2022-08-09T06:52:48.506Z,96.50
2022-08-09T06:55:23.287Z,96.50
2022-08-09T06:58:02.844Z,95.90
2022-08-09T07:00:49.734Z,96.00
2022-08-09T07:03:27.796Z,96.00
2022-08-09T07:06:39.230Z,95.60
2022-08-09T07:09:56.468Z,95.50
2022-08-09T07:11:58.439Z,95.50
2022-08-09T07:14:27.341Z,94.70
2022-08-09T07:16:58.300Z,94.20
2022-08-09T07:19:26.621Z,94.10
2022-08-09T07:21:57.882Z,93.30
2022-08-09T07:24:32.266Z,92.90
2022-08-09T07:27:33.062Z,93.00
2022-08-09T07:29:59.830Z,93.20
2022-08-09T07:32:33.729Z,92.10
2022-08-09T07:35:10.719Z,92.50
2022-08-09T07:37:43.864Z,93.00
2022-08-09T07:40:17.157Z,92.10
2022-08-09T07:42:56.265Z,91.80
2022-08-09T07:45:38.281Z,91.40
2022-08-09T07:48:28.342Z,91.10
2022-08-09T07:51:09.441Z,91.50
2022-08-09T07:54:05.091Z,91.00
2022-08-09T07:56:34.696Z,91.20
2022-08-09T07:59:14.082Z,90.60
2022-08-09T08:01:53.019Z,90.40
2022-08-09T08:04:31.267Z,90.30
2022-08-09T08:07:09.606Z,90.30
2022-08-09T08:09:53.592Z,89.70
2022-08-09T08:12:28.267Z,90.20
2022-08-09T08:14:59.622Z,90.40
2022-08-09T08:17:52.143Z,90.70
2022-08-09T08:20:16.087Z,90.70
2022-08-09T08:22:45.012Z,91.80
2022-08-09T08:25:16.849Z,91.00
2022-08-09T08:27:49.982Z,91.00
2022-08-09T08:30:19.861Z,91.90
2022-08-09T08:32:52.642Z,91.80
2022-08-09T08:35:22.929Z,92.50
2022-08-09T08:38:02.272Z,90.80
2022-08-09T08:40:37.547Z,90.80
2022-08-09T08:43:08.794Z,90.90
2022-08-09T08:45:51.580Z,91.30
2022-08-09T08:48:23.386Z,91.00
2022-08-09T08:50:58.713Z,91.30
2022-08-09T08:53:32.313Z,91.00
2022-08-09T08:56:06.127Z,91.40
2022-08-09T08:58:36.930Z,91.30
2022-08-09T09:01:08.985Z,90.70
2022-08-09T09:03:50.784Z,90.50
2022-08-09T09:06:20.667Z,91.20
2022-08-09T09:08:52.531Z,90.80
2022-08-09T09:11:29.200Z,90.40
2022-08-09T09:14:03.563Z,90.50
2022-08-09T09:16:35.520Z,90.70
2022-08-09T09:19:36.785Z,90.70
2022-08-09T09:22:11.704Z,90.80
2022-08-09T09:24:43.412Z,90.10
2022-08-09T09:28:02.937Z,89.60
2022-08-09T09:30:32.924Z,90.60
2022-08-09T09:33:13.728Z,90.50
2022-08-09T09:36:02.600Z,89.70
2022-08-09T09:38:46.480Z,91.00
2022-08-09T09:41:33.115Z,90.70
2022-08-09T09:44:11.851Z,90.30
2022-08-09T09:46:50.429Z,90.40
2022-08-09T09:49:56.028Z,91.10
2022-08-09T09:52:33.439Z,89.50
2022-08-09T09:55:16.669Z,89.80
2022-08-09T09:58:12.593Z,89.70
2022-08-09T10:00:52.671Z,88.90
2022-08-09T10:03:44.078Z,88.70
2022-08-09T10:06:14.763Z,85.10
2022-08-09T10:08:54.866Z,89.60
2022-08-09T10:11:53.885Z,87.90
2022-08-09T10:14:27.495Z,85.00
2022-08-09T10:17:24.024Z,83.80
2022-08-09T10:19:47.480Z,83.70
2022-08-09T10:22:33.699Z,85.30
2022-08-09T10:25:11.241Z,87.00
2022-08-09T10:27:45.132Z,86.90
2022-08-09T10:34:04.518Z,83.30
2022-08-09T10:36:02.320Z,82.40
2022-08-09T10:38:39.634Z,82.10
2022-08-09T10:41:21.210Z,84.90
2022-08-09T10:44:00.085Z,84.60
2022-08-09T10:47:20.394Z,85.00
2022-08-09T10:50:09.871Z,82.50
2022-08-09T10:53:04.374Z,82.10
2022-08-09T10:55:55.681Z,80.80
2022-08-09T10:58:37.141Z,83.40
2022-08-09T11:03:01.664Z,82.90
2022-08-09T11:04:28.392Z,83.30
2022-08-09T11:07:58.418Z,82.50
2022-08-09T11:11:08.486Z,80.60
2022-08-09T11:13:49.958Z,78.60
2022-08-09T11:16:40.950Z,77.70
2022-08-09T11:19:11.351Z,80.40
2022-08-09T11:22:16.790Z,78.70
2022-08-09T11:25:09.850Z,79.90
2022-08-09T11:28:04.400Z,79.20
2022-08-09T11:30:35.782Z,79.00
2022-08-09T11:33:06.739Z,79.80
2022-08-09T11:35:49.671Z,78.70
2022-08-09T11:38:22.243Z,79.20
2022-08-09T11:40:54.667Z,79.40
2022-08-09T11:43:43.266Z,78.80
2022-08-09T11:46:11.491Z,79.70
2022-08-09T11:48:51.218Z,77.20
2022-08-09T11:53:03.757Z,77.70
2022-08-09T11:54:28.596Z,75.30
2022-08-09T11:57:59.888Z,78.70
2022-08-09T12:00:30.950Z,78.70
2022-08-09T12:03:50.597Z,76.60
2022-08-09T12:05:50.076Z,75.50
2022-08-09T12:08:22.093Z,75.90
2022-08-09T12:10:53.819Z,76.40
2022-08-09T12:14:09.786Z,76.90
2022-08-09T12:16:37.748Z,77.90
2022-08-09T12:19:09.481Z,75.90
2022-08-09T12:21:48.661Z,77.10
2022-08-09T12:24:23.637Z,76.30
2022-08-09T12:28:59.163Z,77.80
2022-08-09T12:30:01.581Z,77.20
2022-08-09T12:32:35.239Z,73.80
2022-08-09T12:35:12.512Z,75.40
2022-08-09T12:37:50.064Z,74.20
2022-08-09T12:40:23.372Z,73.50
2022-08-09T12:42:53.323Z,74.40
2022-08-09T12:45:35.018Z,74.40
2022-08-09T12:48:19.926Z,74.00
2022-08-09T12:50:59.368Z,74.10
2022-08-09T12:53:37.778Z,77.00
2022-08-09T12:56:12.617Z,73.50
2022-08-09T12:58:50.654Z,73.10
2022-08-09T13:01:28.385Z,71.40
2022-08-09T13:04:02.169Z,70.60
2022-08-09T13:06:35.006Z,72.20
2022-08-09T13:09:10.977Z,72.30
2022-08-09T13:11:42.792Z,70.30
2022-08-09T13:14:41.766Z,70.60
2022-08-09T13:17:08.524Z,71.70
2022-08-09T13:20:10.520Z,71.90
2022-08-09T13:23:00.288Z,72.80
2022-08-09T13:25:16.671Z,72.80
2022-08-09T13:27:54.960Z,73.10
2022-08-09T13:31:11.559Z,72.40
2022-08-09T13:33:22.617Z,71.50
2022-08-09T13:36:38.548Z,73.30
2022-08-09T13:38:56.700Z,72.70
2022-08-09T13:41:54.622Z,72.70
2022-08-09T13:44:16.836Z,70.60
2022-08-09T13:47:26.520Z,70.80
2022-08-09T13:49:39.924Z,69.60
2022-08-09T13:52:24.766Z,69.40
2022-08-09T13:55:00.139Z,71.20
2022-08-09T13:57:35.875Z,71.20
2022-08-09T14:00:11.921Z,72.90
2022-08-09T14:02:42.580Z,73.00
2022-08-09T14:06:00.290Z,72.10
2022-08-09T14:08:19.193Z,73.30
2022-08-09T14:10:51.938Z,72.20
2022-08-09T14:13:27.706Z,72.30
2022-08-09T14:16:11.420Z,74.00
2022-08-09T14:18:43.200Z,72.60
2022-08-09T14:21:17.672Z,73.60
2022-08-09T14:23:55.372Z,73.70
2022-08-09T14:26:31.783Z,72.40
2022-08-09T14:29:02.868Z,71.50
2022-08-09T14:31:49.929Z,71.30
2022-08-09T14:34:31.497Z,72.30
2022-08-09T14:37:02.532Z,72.20
2022-08-09T14:39:45.186Z,71.50
2022-08-09T14:42:31.341Z,72.60
2022-08-09T14:46:40.464Z,71.90
2022-08-09T14:47:58.338Z,72.40
2022-08-09T14:50:28.634Z,72.40
2022-08-09T14:52:56.722Z,72.40
2022-08-09T14:55:29.198Z,70.80
2022-08-09T14:58:03.106Z,71.70
2022-08-09T15:00:32.300Z,72.20
2022-08-09T15:03:02.087Z,73.30
2022-08-09T15:05:31.995Z,71.60
2022-08-09T15:08:00.483Z,70.90
2022-08-09T15:10:32.431Z,71.30
2022-08-09T15:13:01.541Z,70.50
2022-08-09T15:15:34.346Z,71.70
2022-08-09T15:18:07.696Z,71.80
2022-08-09T15:21:55.796Z,74.30
2022-08-09T15:24:02.788Z,72.20
2022-08-09T15:26:18.974Z,74.30
2022-08-09T15:28:56.499Z,74.20
2022-08-09T15:31:28.619Z,74.30
2022-08-09T15:34:32.449Z,74.90
2022-08-09T15:36:59.861Z,75.10
2022-08-09T15:39:34.748Z,73.40
2022-08-09T15:42:13.253Z,73.00
2022-08-09T15:44:43.099Z,71.80
2022-08-09T15:47:14.299Z,72.30
2022-08-09T15:50:04.095Z,72.50
2022-08-09T15:52:35.035Z,72.40
2022-08-09T15:55:03.431Z,71.60
2022-08-09T15:57:35.981Z,71.50
2022-08-09T16:00:16.167Z,73.40
2022-08-09T16:02:54.424Z,72.10
2022-08-09T16:05:26.469Z,73.00
2022-08-09T16:08:29.888Z,71.90
2022-08-09T16:10:59.452Z,72.10
2022-08-09T16:14:02.713Z,73.00
2022-08-09T16:16:18.695Z,73.00
2022-08-09T16:18:47.111Z,73.00
2022-08-09T16:21:17.617Z,73.20
2022-08-09T16:23:54.768Z,72.90
2022-08-09T16:26:33.881Z,73.00
2022-08-09T16:29:10.604Z,73.90
2022-08-09T16:32:12.575Z,73.00
2022-08-09T16:34:29.888Z,73.30
2022-08-09T16:37:17.927Z,74.30
2022-08-09T16:39:54.516Z,73.70
2022-08-09T16:42:32.728Z,74.20
2022-08-09T16:45:02.144Z,74.30
2022-08-09T16:48:39.301Z,74.50
2022-08-09T16:50:29.989Z,74.70
2022-08-09T16:53:01.405Z,75.20
2022-08-09T16:55:31.510Z,74.50
2022-08-09T16:58:18.175Z,74.30
2022-08-09T17:00:48.371Z,75.00
2022-08-09T17:03:20.930Z,73.50
2022-08-09T17:06:06.854Z,73.80
2022-08-09T17:08:44.044Z,73.70
2022-08-09T17:11:33.054Z,74.20
2022-08-09T17:14:25.586Z,73.80
2022-08-09T17:16:59.945Z,74.00
2022-08-09T17:20:12.645Z,74.60
2022-08-09T17:22:23.847Z,74.70
2022-08-09T17:25:03.652Z,75.20
2022-08-09T17:27:38.161Z,75.20
2022-08-09T17:30:12.840Z,75.50
2022-08-09T17:32:44.382Z,75.70
2022-08-09T17:35:17.676Z,75.80
2022-08-09T17:38:11.495Z,76.60
2022-08-09T17:40:35.887Z,76.50
2022-08-09T17:43:33.072Z,77.10
2022-08-09T17:46:03.828Z,76.80
2022-08-09T17:48:38.591Z,77.60
2022-08-09T17:51:10.257Z,77.90
2022-08-09T17:53:47.917Z,78.00
2022-08-09T17:56:21.272Z,78.50
2022-08-09T17:58:49.331Z,80.20
2022-08-09T18:01:22.514Z,79.30
2022-08-09T18:03:54.439Z,79.40
2022-08-09T18:06:32.060Z,80.20
2022-08-09T18:09:03.569Z,80.00
2022-08-09T18:12:05.184Z,80.20
2022-08-09T18:14:22.726Z,80.50
2022-08-09T18:16:53.025Z,80.80
2022-08-09T18:21:00.288Z,81.20
2022-08-09T18:22:13.205Z,81.50
2022-08-09T18:24:45.547Z,81.00
2022-08-09T18:27:49.277Z,81.30
2022-08-09T18:30:35.051Z,81.50
2022-08-09T18:32:54.309Z,82.20
2022-08-09T18:36:00.157Z,82.40
2022-08-09T18:38:13.338Z,83.00
2022-08-09T18:40:43.013Z,83.00
2022-08-09T18:43:12.590Z,83.60
2022-08-09T18:46:46.487Z,84.50
2022-08-09T18:48:30.296Z,84.80
2022-08-09T18:51:02.651Z,85.00
2022-08-09T18:53:55.877Z,85.30
2022-08-09T18:56:28.147Z,85.40
2022-08-09T18:58:56.871Z,86.10
2022-08-09T19:01:25.819Z,86.60
2022-08-09T19:04:01.210Z,87.20
2022-08-09T19:06:38.385Z,87.60
2022-08-09T19:09:07.896Z,87.70
2022-08-09T19:11:41.841Z,87.90
2022-08-09T19:14:09.865Z,88.10
2022-08-09T19:16:50.319Z,87.50
2022-08-09T19:19:25.195Z,87.90
2022-08-09T19:22:04.281Z,89.20
2022-08-09T19:24:38.381Z,89.10
2022-08-09T19:27:21.385Z,88.80
2022-08-09T19:30:21.595Z,89.30
2022-08-09T19:32:37.543Z,89.40
2022-08-09T19:35:06.869Z,89.70
2022-08-09T19:37:54.014Z,89.70
2022-08-09T19:40:23.121Z,89.80
2022-08-09T19:42:52.351Z,90.00
2022-08-09T19:45:20.606Z,90.10
2022-08-09T19:47:48.674Z,90.20
2022-08-09T19:50:51.071Z,90.40
2022-08-09T19:53:06.552Z,90.70
2022-08-09T19:56:02.208Z,90.80
2022-08-09T19:58:30.095Z,90.80
2022-08-09T20:00:58.591Z,91.00
2022-08-09T20:04:12.177Z,91.20
2022-08-09T20:06:22.516Z,91.30
2022-08-09T20:08:57.007Z,91.40
2022-08-09T20:11:26.676Z,91.40
2022-08-09T20:13:55.197Z,91.70
2022-08-09T20:16:33.584Z,91.70
2022-08-09T20:19:48.775Z,91.80
2022-08-09T20:21:57.472Z,91.90
2022-08-09T20:24:34.173Z,92.00
2022-08-09T20:27:05.758Z,92.00
2022-08-09T20:29:38.435Z,92.20
2022-08-09T20:32:28.840Z,92.10
2022-08-09T20:34:56.380Z,92.20
2022-08-09T20:37:24.802Z,92.30
2022-08-09T20:40:16.442Z,92.30
2022-08-09T20:42:53.419Z,92.30
2022-08-09T20:46:00.705Z,92.30
2022-08-09T20:48:21.075Z,92.30
2022-08-09T20:50:55.603Z,92.40
2022-08-09T20:53:35.283Z,92.50
2022-08-09T20:56:20.558Z,92.50
2022-08-09T20:58:50.580Z,92.50
2022-08-09T21:01:34.867Z,92.50
2022-08-09T21:05:53.446Z,92.60
2022-08-09T21:06:59.099Z,92.70
2022-08-09T21:09:45.197Z,92.90
2022-08-09T21:14:48.151Z,93.00
2022-08-09T21:18:11.074Z,93.10
2022-08-09T21:20:22.607Z,93.10
2022-08-09T21:22:54.995Z,93.20
2022-08-09T21:25:44.005Z,93.40
2022-08-09T21:28:35.195Z,93.80
2022-08-09T21:31:17.068Z,93.40
2022-08-09T21:33:50.779Z,93.50
2022-08-09T21:36:25.947Z,93.60
2022-08-09T21:38:58.617Z,93.60
2022-08-09T21:42:05.610Z,93.70
2022-08-09T21:44:34.079Z,93.90
2022-08-09T21:47:04.485Z,93.90
2022-08-09T21:49:39.968Z,94.10
2022-08-09T21:52:17.111Z,94.10
2022-08-09T21:54:57.168Z,94.20
2022-08-09T21:57:38.713Z,94.20
2022-08-09T22:00:25.711Z,94.20
2022-08-09T22:02:58.753Z,94.30
2022-08-09T22:05:36.137Z,94.30
2022-08-09T22:08:13.547Z,94.40
2022-08-09T22:11:04.923Z,94.40
2022-08-09T22:13:34.199Z,94.40
2022-08-09T22:16:07.614Z,94.40
2022-08-09T22:18:37.367Z,94.60
2022-08-09T22:21:09.926Z,94.50
2022-08-09T22:24:01.632Z,94.70
2022-08-09T22:26:34.936Z,94.70
2022-08-09T22:29:08.768Z,94.70
2022-08-09T22:31:50.215Z,94.80
2022-08-09T22:34:26.484Z,94.70
2022-08-09T22:36:54.856Z,94.80
2022-08-09T22:39:55.402Z,94.90
2022-08-09T22:42:21.276Z,94.80
2022-08-09T22:45:00.557Z,94.90
2022-08-09T22:48:14.135Z,95.00
2022-08-09T22:50:28.426Z,95.20
2022-08-09T22:52:58.177Z,95.10
2022-08-09T22:55:39.196Z,95.30
2022-08-09T22:58:32.111Z,95.30
2022-08-09T23:01:02.369Z,95.40
2022-08-09T23:04:05.092Z,95.50
2022-08-09T23:06:35.604Z,95.60
2022-08-09T23:09:05.269Z,95.80
2022-08-09T23:11:33.481Z,95.80
2022-08-09T23:14:03.059Z,95.80
2022-08-09T23:16:31.970Z,95.90
2022-08-09T23:19:02.043Z,95.90
2022-08-09T23:21:34.594Z,96.00
2022-08-09T23:24:07.179Z,96.00
2022-08-09T23:26:35.977Z,96.10
2022-08-09T23:29:04.464Z,96.20
2022-08-09T23:31:32.591Z,96.30
2022-08-09T23:34:02.617Z,96.30
2022-08-09T23:36:32.020Z,96.50
2022-08-09T23:39:00.074Z,96.50
2022-08-09T23:41:29.634Z,96.50
2022-08-09T23:43:59.269Z,96.70
2022-08-09T23:46:27.901Z,96.80
2022-08-09T23:48:56.124Z,96.90
2022-08-09T23:51:25.930Z,97.00
2022-08-09T23:53:55.358Z,97.20
2022-08-09T23:56:51.973Z,97.30
2022-08-09T23:59:17.707Z,97.50
